createdAt,value
2018-07-13T00:00:36.669Z,18.60
2018-07-13T00:03:05.396Z,18.60
2018-07-13T00:05:34.021Z,18.60
2018-07-13T00:08:02.573Z,18.60
2018-07-13T00:10:31.842Z,18.50
2018-07-13T00:13:00.527Z,18.50
2018-07-13T00:15:29.424Z,18.50
2018-07-13T00:17:57.939Z,18.40
2018-07-13T00:20:29.228Z,18.40
2018-07-13T00:23:02.274Z,18.40
2018-07-13T00:25:32.228Z,18.30
2018-07-13T00:28:00.923Z,18.30
2018-07-13T00:30:29.528Z,18.20
2018-07-13T00:32:58.373Z,18.30
2018-07-13T00:35:26.980Z,18.30
2018-07-13T00:37:55.637Z,18.30
2018-07-13T00:40:24.811Z,18.30
2018-07-13T00:42:53.531Z,18.20
2018-07-13T00:45:22.177Z,18.20
2018-07-13T00:47:50.769Z,18.10
2018-07-13T00:50:19.864Z,18.10
2018-07-13T00:52:48.624Z,18.00
2018-07-13T00:55:17.309Z,18.00
2018-07-13T00:57:46.008Z,17.90
2018-07-13T01:00:14.550Z,17.90
2018-07-13T01:02:43.072Z,17.90
2018-07-13T01:05:11.797Z,17.80
2018-07-13T01:07:40.487Z,17.80
2018-07-13T01:10:09.063Z,17.70
2018-07-13T01:12:38.083Z,17.60
2018-07-13T01:15:07.006Z,17.60
2018-07-13T01:17:35.580Z,17.60
2018-07-13T01:20:04.239Z,17.50
2018-07-13T01:22:33.137Z,17.50
2018-07-13T01:25:01.731Z,17.50
2018-07-13T01:27:30.473Z,17.50
2018-07-13T01:29:59.965Z,17.40
2018-07-13T01:32:28.583Z,17.40
2018-07-13T01:34:57.115Z,17.30
2018-07-13T01:37:25.850Z,17.20
2018-07-13T01:42:22.758Z,17.20
2018-07-13T01:44:51.449Z,17.20
2018-07-13T01:47:20.227Z,17.20
2018-07-13T01:49:48.919Z,17.20
2018-07-13T01:52:18.137Z,17.20
2018-07-13T01:54:46.709Z,17.10
2018-07-13T01:57:16.623Z,17.10
2018-07-13T01:59:45.269Z,17.10
2018-07-13T02:02:14.960Z,17.10
2018-07-13T02:04:43.513Z,17.10
2018-07-13T02:07:12.111Z,17.20
2018-07-13T02:09:41.308Z,17.20
2018-07-13T02:12:11.013Z,17.10
2018-07-13T02:17:08.479Z,17.10
2018-07-13T02:19:37.468Z,17.10
2018-07-13T02:22:06.118Z,17.00
2018-07-13T02:24:34.761Z,17.00
2018-07-13T02:27:03.598Z,17.00
2018-07-13T02:29:32.259Z,17.00
2018-07-13T02:32:00.826Z,17.00
2018-07-13T02:34:29.655Z,16.90
2018-07-13T02:36:58.698Z,16.90
2018-07-13T02:39:27.337Z,16.90
2018-07-13T02:41:56.280Z,16.90
2018-07-13T02:44:26.062Z,16.90
2018-07-13T02:46:56.032Z,16.80
2018-07-13T02:49:24.983Z,16.80
2018-07-13T02:51:55.226Z,16.70
2018-07-13T02:54:24.355Z,16.60
2018-07-13T02:56:55.320Z,16.60
2018-07-13T02:59:25.337Z,16.60
2018-07-13T03:01:55.188Z,16.50
2018-07-13T03:04:24.265Z,16.50
2018-07-13T03:06:52.941Z,16.40
2018-07-13T03:09:21.605Z,16.40
2018-07-13T03:11:50.245Z,16.40
2018-07-13T03:16:47.763Z,16.30
2018-07-13T03:19:17.056Z,16.20
2018-07-13T03:21:45.710Z,16.20
2018-07-13T03:24:14.415Z,16.10
2018-07-13T03:26:43.058Z,16.10
2018-07-13T03:29:11.952Z,16.10
2018-07-13T03:31:40.963Z,16.00
2018-07-13T03:34:09.634Z,16.00
2018-07-13T03:36:38.838Z,16.00
2018-07-13T03:39:07.498Z,16.00
2018-07-13T03:41:36.132Z,15.90
2018-07-13T03:44:04.705Z,15.90
2018-07-13T03:46:33.316Z,15.90
2018-07-13T03:49:02.242Z,15.90
2018-07-13T03:51:30.847Z,15.90
2018-07-13T03:53:59.382Z,15.90
2018-07-13T03:56:28.384Z,15.90
2018-07-13T03:58:57.023Z,15.90
2018-07-13T04:01:25.658Z,15.90
2018-07-13T04:03:54.274Z,16.00
2018-07-13T04:06:23.083Z,16.00
2018-07-13T04:08:52.033Z,16.00
2018-07-13T04:11:20.861Z,16.00
2018-07-13T04:13:49.511Z,16.00
2018-07-13T04:16:18.523Z,16.00
2018-07-13T04:18:48.114Z,16.00
2018-07-13T04:21:17.300Z,16.00
2018-07-13T04:23:46.423Z,16.00
2018-07-13T04:26:15.298Z,16.00
2018-07-13T04:28:44.019Z,16.10
2018-07-13T04:31:12.563Z,16.00
2018-07-13T04:33:41.365Z,16.10
2018-07-13T04:36:10.069Z,16.10
2018-07-13T04:38:38.788Z,16.10
2018-07-13T04:41:07.442Z,16.10
2018-07-13T04:43:35.950Z,16.10
2018-07-13T04:46:04.963Z,16.10
2018-07-13T04:48:34.209Z,16.10
2018-07-13T04:51:02.288Z,16.10
2018-07-13T04:53:30.927Z,16.10
2018-07-13T04:55:59.772Z,16.10
2018-07-13T04:58:28.717Z,16.20
2018-07-13T05:00:57.459Z,16.20
2018-07-13T05:03:26.111Z,16.20
2018-07-13T05:05:54.799Z,16.20
2018-07-13T05:08:23.497Z,16.30
2018-07-13T05:10:54.973Z,16.30
2018-07-13T05:13:24.393Z,16.40
2018-07-13T05:15:53.305Z,16.40
2018-07-13T05:18:22.306Z,16.50
2018-07-13T05:20:51.137Z,16.50
2018-07-13T05:23:19.791Z,16.60
2018-07-13T05:25:49.524Z,16.60
2018-07-13T05:28:18.214Z,16.60
2018-07-13T05:30:47.132Z,16.60
2018-07-13T05:33:15.799Z,16.60
2018-07-13T05:35:44.449Z,16.70
2018-07-13T05:38:13.076Z,16.70
2018-07-13T05:40:41.703Z,16.80
2018-07-13T05:43:10.827Z,16.90
2018-07-13T05:45:39.729Z,16.90
2018-07-13T05:48:08.468Z,17.00
2018-07-13T05:50:37.063Z,17.00
2018-07-13T05:53:06.127Z,17.00
2018-07-13T05:55:35.051Z,17.10
2018-07-13T05:58:03.754Z,17.10
2018-07-13T06:00:32.387Z,17.20
2018-07-13T06:03:01.003Z,17.20
2018-07-13T06:05:29.670Z,17.30
2018-07-13T06:07:58.256Z,17.40
2018-07-13T06:10:26.849Z,17.40
2018-07-13T06:12:55.520Z,17.50
2018-07-13T06:15:24.043Z,17.60
2018-07-13T06:17:52.623Z,17.70
2018-07-13T06:20:21.225Z,17.70
2018-07-13T06:22:49.813Z,17.80
2018-07-13T06:25:18.613Z,17.80
2018-07-13T06:27:47.353Z,17.90
2018-07-13T06:30:15.962Z,18.00
2018-07-13T06:32:44.996Z,18.00
2018-07-13T06:35:13.517Z,18.10
2018-07-13T06:37:42.824Z,18.20
2018-07-13T06:40:11.527Z,18.30
2018-07-13T06:42:40.289Z,18.40
2018-07-13T06:45:09.004Z,18.50
2018-07-13T06:47:38.427Z,18.60
2018-07-13T06:50:07.298Z,18.60
2018-07-13T06:52:36.054Z,18.70
2018-07-13T06:55:04.714Z,18.80
2018-07-13T06:57:44.605Z,18.90
2018-07-13T07:01:16.472Z,18.90
2018-07-13T07:04:19.438Z,19.00
2018-07-13T07:06:48.172Z,19.10
2018-07-13T07:09:16.788Z,19.20
2018-07-13T07:11:56.757Z,19.20
2018-07-13T07:14:25.324Z,19.30
2018-07-13T07:16:53.989Z,19.40
2018-07-13T07:19:25.901Z,19.50
2018-07-13T07:21:54.489Z,19.60
2018-07-13T07:24:23.053Z,19.70
2018-07-13T07:26:52.016Z,19.80
2018-07-13T07:29:20.740Z,19.90
2018-07-13T07:31:50.457Z,20.00
2018-07-13T07:34:19.532Z,20.10
2018-07-13T07:36:48.289Z,20.30
2018-07-13T07:39:16.954Z,20.30
2018-07-13T07:41:45.575Z,20.40
2018-07-13T07:44:14.136Z,20.50
2018-07-13T07:46:42.692Z,20.60
2018-07-13T07:49:11.499Z,20.60
2018-07-13T07:54:08.468Z,20.90
2018-07-13T07:56:37.129Z,21.00
2018-07-13T07:59:06.136Z,21.10
2018-07-13T08:01:35.143Z,21.20
2018-07-13T08:04:05.662Z,21.20
2018-07-13T08:06:34.581Z,21.30
2018-07-13T08:09:05.264Z,21.30
2018-07-13T08:11:34.076Z,21.40
2018-07-13T08:14:04.691Z,21.40
2018-07-13T08:16:34.209Z,21.50
2018-07-13T08:19:03.379Z,21.60
2018-07-13T08:21:32.361Z,21.70
2018-07-13T08:24:03.315Z,21.70
2018-07-13T08:26:32.066Z,21.80
2018-07-13T08:29:00.783Z,21.90
2018-07-13T08:31:29.381Z,21.90
2018-07-13T08:33:59.215Z,22.00
2018-07-13T08:36:27.758Z,22.00
2018-07-13T08:38:56.307Z,22.00
2018-07-13T08:41:25.209Z,22.10
2018-07-13T08:43:54.584Z,22.20
2018-07-13T08:46:23.417Z,22.20
2018-07-13T08:48:52.611Z,22.30
2018-07-13T08:51:21.909Z,22.40
2018-07-13T08:53:52.004Z,22.40
2018-07-13T08:56:20.752Z,22.40
2018-07-13T08:58:49.566Z,22.40
2018-07-13T09:01:18.449Z,22.50
2018-07-13T09:03:48.059Z,22.50
2018-07-13T09:06:16.812Z,22.60
2018-07-13T09:08:45.966Z,22.70
2018-07-13T09:11:15.076Z,22.70
2018-07-13T09:13:43.910Z,22.80
2018-07-13T09:16:13.719Z,22.80
2018-07-13T09:18:42.375Z,23.00
2018-07-13T09:21:10.914Z,23.00
2018-07-13T09:23:40.700Z,23.10
2018-07-13T09:26:09.599Z,23.20
2018-07-13T09:28:39.205Z,23.20
2018-07-13T09:31:10.063Z,23.30
2018-07-13T09:33:38.709Z,23.40
2018-07-13T09:36:07.829Z,23.40
2018-07-13T09:38:36.442Z,23.40
2018-07-13T09:41:05.145Z,23.50
2018-07-13T09:43:34.052Z,23.60
2018-07-13T09:46:03.440Z,23.60
2018-07-13T09:48:32.320Z,23.70
2018-07-13T09:51:01.102Z,23.70
2018-07-13T09:53:29.769Z,23.70
2018-07-13T09:55:58.375Z,23.90
2018-07-13T09:58:34.700Z,24.00
2018-07-13T10:01:09.254Z,24.10
2018-07-13T10:03:38.263Z,24.20
2018-07-13T10:06:06.904Z,24.20
2018-07-13T10:08:35.905Z,24.30
2018-07-13T10:11:04.629Z,24.40
2018-07-13T10:13:34.000Z,24.60
2018-07-13T10:16:03.003Z,24.70
2018-07-13T10:18:32.418Z,24.80
2018-07-13T10:21:01.401Z,24.90
2018-07-13T10:23:30.541Z,25.00
2018-07-13T10:26:03.841Z,25.10
2018-07-13T10:28:34.769Z,25.20
2018-07-13T10:31:03.496Z,25.20
2018-07-13T10:33:33.710Z,25.30
2018-07-13T10:36:02.418Z,25.10
2018-07-13T10:38:31.436Z,24.90
2018-07-13T10:41:00.148Z,25.00
2018-07-13T10:43:28.831Z,25.20
2018-07-13T10:45:57.493Z,25.30
2018-07-13T10:48:26.322Z,25.40
2018-07-13T10:50:54.907Z,25.50
2018-07-13T10:53:23.446Z,25.50
2018-07-13T10:55:52.741Z,25.60
2018-07-13T10:58:21.440Z,25.70
2018-07-13T11:00:49.993Z,25.80
2018-07-13T11:05:48.008Z,26.10
2018-07-13T11:08:17.614Z,26.10
2018-07-13T11:10:46.271Z,26.20
2018-07-13T11:13:14.936Z,26.30
2018-07-13T11:15:43.559Z,26.40
2018-07-13T11:18:12.186Z,26.50
2018-07-13T11:20:40.937Z,26.50
2018-07-13T11:23:09.511Z,26.30
2018-07-13T11:25:38.868Z,26.20
2018-07-13T11:28:07.480Z,25.90
2018-07-13T11:30:35.969Z,25.90
2018-07-13T11:33:04.530Z,25.90
2018-07-13T11:35:33.076Z,26.10
2018-07-13T11:38:01.719Z,26.30
2018-07-13T11:40:30.279Z,26.50
2018-07-13T11:42:59.116Z,26.60
2018-07-13T11:45:28.141Z,26.60
2018-07-13T11:47:56.785Z,26.70
2018-07-13T11:50:25.376Z,26.50
2018-07-13T11:52:54.480Z,26.50
2018-07-13T11:55:23.073Z,26.50
2018-07-13T11:57:51.881Z,26.40
2018-07-13T12:00:20.442Z,26.70
2018-07-13T12:02:49.102Z,26.80
2018-07-13T12:05:17.697Z,26.90
2018-07-13T12:07:46.970Z,27.00
2018-07-13T12:10:15.459Z,26.90
2018-07-13T12:12:44.152Z,26.90
2018-07-13T12:15:12.561Z,26.80
2018-07-13T12:17:41.222Z,26.80
2018-07-13T12:20:09.700Z,26.90
2018-07-13T12:22:38.928Z,26.90
2018-07-13T12:25:07.543Z,26.90
2018-07-13T12:27:36.095Z,27.00
2018-07-13T12:30:04.626Z,27.20
2018-07-13T12:32:33.466Z,27.40
2018-07-13T12:35:02.051Z,27.50
2018-07-13T12:37:30.757Z,27.60
2018-07-13T12:39:59.310Z,27.70
2018-07-13T12:42:27.792Z,27.90
2018-07-13T12:44:56.923Z,27.90
2018-07-13T12:47:25.493Z,27.80
2018-07-13T12:49:54.023Z,27.80
2018-07-13T12:52:23.229Z,27.80
2018-07-13T12:54:51.881Z,27.70
2018-07-13T12:57:20.903Z,27.70
2018-07-13T12:59:49.454Z,27.60
2018-07-13T13:02:18.076Z,27.50
2018-07-13T13:04:46.683Z,27.50
2018-07-13T13:07:15.744Z,27.40
2018-07-13T13:09:44.451Z,27.40
2018-07-13T13:12:12.937Z,27.30
2018-07-13T13:14:41.446Z,27.30
2018-07-13T13:17:09.983Z,27.30
2018-07-13T13:19:38.669Z,27.20
2018-07-13T13:22:07.390Z,27.30
2018-07-13T13:24:35.937Z,27.40
2018-07-13T13:27:04.524Z,27.50
2018-07-13T13:29:33.241Z,27.30
2018-07-13T13:32:02.405Z,27.50
2018-07-13T13:34:30.987Z,27.40
2018-07-13T13:36:59.553Z,27.50
2018-07-13T13:39:28.106Z,27.40
2018-07-13T13:41:56.642Z,27.50
2018-07-13T13:44:25.719Z,27.70
2018-07-13T13:46:54.424Z,27.80
2018-07-13T13:49:23.387Z,28.00
2018-07-13T13:51:52.378Z,27.90
2018-07-13T13:54:20.977Z,27.90
2018-07-13T13:56:49.491Z,27.90
2018-07-13T13:59:18.217Z,28.00
2018-07-13T14:01:46.818Z,28.10
2018-07-13T14:04:15.454Z,28.00
2018-07-13T14:06:43.948Z,28.10
2018-07-13T14:09:12.534Z,28.30
2018-07-13T14:14:09.311Z,28.50
2018-07-13T14:16:37.957Z,28.10
2018-07-13T14:19:06.497Z,28.00
2018-07-13T14:21:34.994Z,27.80
2018-07-13T14:24:03.725Z,27.70
2018-07-13T14:26:32.604Z,27.90
2018-07-13T14:29:01.168Z,28.00
2018-07-13T14:31:29.728Z,28.20
2018-07-13T14:33:58.241Z,28.40
2018-07-13T14:36:26.753Z,28.40
2018-07-13T14:38:55.300Z,28.50
2018-07-13T14:41:24.357Z,28.60
2018-07-13T14:43:53.233Z,28.60
2018-07-13T14:46:22.114Z,28.60
2018-07-13T14:48:51.399Z,28.70
2018-07-13T14:51:20.355Z,28.60
2018-07-13T14:53:49.062Z,28.70
2018-07-13T14:56:18.073Z,28.70
2018-07-13T14:58:46.655Z,28.90
2018-07-13T15:01:15.710Z,28.80
2018-07-13T15:03:44.240Z,28.90
2018-07-13T15:06:12.895Z,28.90
2018-07-13T15:08:41.396Z,29.00
2018-07-13T15:11:10.368Z,29.10
2018-07-13T15:13:39.054Z,29.30
2018-07-13T15:16:07.608Z,29.40
2018-07-13T15:18:36.143Z,29.50
2018-07-13T15:21:04.927Z,29.60
2018-07-13T15:23:33.609Z,29.60
2018-07-13T15:26:02.161Z,29.80
2018-07-13T15:28:30.808Z,29.90
2018-07-13T15:30:59.362Z,29.90
2018-07-13T15:33:27.894Z,29.80
2018-07-13T15:35:56.428Z,29.90
2018-07-13T15:38:25.334Z,29.60
2018-07-13T15:40:54.201Z,29.70
2018-07-13T15:43:22.919Z,30.00
2018-07-13T15:45:51.403Z,30.10
2018-07-13T15:48:20.036Z,30.10
2018-07-13T15:50:48.712Z,29.80
2018-07-13T15:53:17.225Z,29.60
2018-07-13T15:55:51.265Z,29.60
2018-07-13T15:58:20.047Z,29.60
2018-07-13T16:00:48.952Z,30.00
2018-07-13T16:03:17.631Z,30.10
2018-07-13T16:05:46.663Z,30.20
2018-07-13T16:08:15.543Z,30.40
2018-07-13T16:10:44.272Z,30.40
2018-07-13T16:13:12.818Z,30.40
2018-07-13T16:15:41.514Z,30.40
2018-07-13T16:18:10.025Z,30.50
2018-07-13T16:20:39.036Z,30.50
2018-07-13T16:23:07.649Z,30.40
2018-07-13T16:25:36.163Z,30.10
2018-07-13T16:28:04.953Z,29.80
2018-07-13T16:30:33.546Z,29.50
2018-07-13T16:33:02.122Z,29.00
2018-07-13T16:35:30.630Z,28.50
2018-07-13T16:37:59.510Z,28.60
2018-07-13T16:40:28.100Z,28.70
2018-07-13T16:42:56.588Z,28.40
2018-07-13T16:45:25.420Z,28.40
2018-07-13T16:47:54.326Z,28.80
2018-07-13T16:50:23.214Z,29.20
2018-07-13T16:52:51.899Z,29.40
2018-07-13T16:55:20.953Z,29.40
2018-07-13T16:57:49.556Z,29.40
2018-07-13T17:00:18.578Z,29.50
2018-07-13T17:02:47.367Z,29.50
2018-07-13T17:05:16.199Z,29.60
2018-07-13T17:07:45.218Z,29.60
2018-07-13T17:10:13.733Z,29.60
2018-07-13T17:12:42.269Z,29.80
2018-07-13T17:15:10.863Z,29.70
2018-07-13T17:17:39.645Z,29.50
2018-07-13T17:20:08.257Z,29.50
2018-07-13T17:22:36.765Z,29.60
2018-07-13T17:25:06.234Z,29.60
2018-07-13T17:27:34.752Z,29.50
2018-07-13T17:30:03.618Z,29.50
2018-07-13T17:32:32.170Z,29.40
2018-07-13T17:35:00.713Z,29.40
2018-07-13T17:37:29.255Z,29.50
2018-07-13T17:39:58.105Z,29.70
2018-07-13T17:42:26.749Z,29.80
2018-07-13T17:44:55.330Z,29.80
2018-07-13T17:47:24.545Z,29.60
2018-07-13T17:49:54.240Z,29.60
2018-07-13T17:52:23.360Z,29.70
2018-07-13T17:54:51.916Z,29.80
2018-07-13T17:57:20.506Z,29.90
2018-07-13T17:59:49.998Z,30.00
2018-07-13T18:02:18.929Z,30.10
2018-07-13T18:04:48.119Z,30.00
2018-07-13T18:07:16.785Z,30.00
2018-07-13T18:09:45.987Z,30.00
2018-07-13T18:12:14.523Z,29.90
2018-07-13T18:14:43.077Z,29.80
2018-07-13T18:17:11.653Z,29.70
2018-07-13T18:19:41.332Z,29.50
2018-07-13T18:22:09.979Z,29.30
2018-07-13T18:24:39.118Z,29.10
2018-07-13T18:27:07.730Z,29.10
2018-07-13T18:29:36.261Z,29.00
2018-07-13T18:32:05.820Z,28.90
2018-07-13T18:34:34.410Z,28.80
2018-07-13T18:37:03.028Z,28.60
2018-07-13T18:39:31.588Z,28.50
2018-07-13T18:42:00.240Z,28.50
2018-07-13T18:44:28.844Z,28.40
2018-07-13T18:46:57.384Z,28.40
2018-07-13T18:49:25.936Z,28.20
2018-07-13T18:51:54.837Z,27.90
2018-07-13T18:54:23.360Z,27.70
2018-07-13T18:56:52.425Z,27.50
2018-07-13T18:59:21.032Z,27.30
2018-07-13T19:01:49.584Z,27.20
2018-07-13T19:04:18.625Z,27.00
2018-07-13T19:06:47.262Z,26.80
2018-07-13T19:09:18.780Z,26.60
2018-07-13T19:11:47.842Z,26.40
2018-07-13T19:14:16.983Z,26.20
2018-07-13T19:16:45.482Z,26.00
2018-07-13T19:19:14.182Z,25.80
2018-07-13T19:21:42.727Z,25.60
2018-07-13T19:24:11.463Z,25.40
2018-07-13T19:26:40.270Z,25.30
2018-07-13T19:29:08.903Z,25.10
2018-07-13T19:31:37.554Z,24.90
2018-07-13T19:34:06.516Z,24.80
2018-07-13T19:36:35.183Z,24.60
2018-07-13T19:39:04.948Z,24.50
2018-07-13T19:41:33.555Z,24.40
2018-07-13T19:44:02.113Z,24.20
2018-07-13T19:46:30.714Z,24.20
2018-07-13T19:48:59.303Z,24.10
2018-07-13T19:51:27.914Z,23.90
2018-07-13T19:53:57.083Z,23.80
2018-07-13T19:56:25.712Z,23.70
2018-07-13T19:58:54.294Z,23.60
2018-07-13T20:01:23.100Z,23.60
2018-07-13T20:03:52.504Z,23.40
2018-07-13T20:06:21.836Z,23.30
2018-07-13T20:08:51.222Z,23.30
2018-07-13T20:11:21.436Z,23.20
2018-07-13T20:16:20.408Z,23.00
2018-07-13T20:18:51.480Z,23.00
2018-07-13T20:21:28.521Z,22.90
2018-07-13T20:23:59.783Z,22.90
2018-07-13T20:26:29.127Z,22.80
2018-07-13T20:28:57.954Z,22.80
2018-07-13T20:31:27.382Z,22.70
2018-07-13T20:36:29.465Z,22.60
2018-07-13T20:39:00.200Z,22.50
2018-07-13T20:41:29.021Z,22.40
2018-07-13T20:43:57.890Z,22.40
2018-07-13T20:46:26.993Z,22.30
2018-07-13T20:48:56.863Z,22.30
2018-07-13T20:51:25.602Z,22.20
2018-07-13T20:53:56.010Z,22.10
2018-07-13T20:56:26.486Z,22.00
2018-07-13T20:58:58.099Z,22.00
2018-07-13T21:01:30.171Z,21.90
2018-07-13T21:04:02.357Z,21.90
2018-07-13T21:06:31.668Z,21.80
2018-07-13T21:09:01.629Z,21.70
2018-07-13T21:11:33.292Z,21.60
2018-07-13T21:14:04.925Z,21.60
2018-07-13T21:19:08.472Z,21.40
2018-07-13T21:21:39.865Z,21.30
2018-07-13T21:24:11.557Z,21.30
2018-07-13T21:26:42.080Z,21.30
2018-07-13T21:29:13.112Z,21.10
2018-07-13T21:31:43.688Z,21.10
2018-07-13T21:34:12.493Z,21.00
2018-07-13T21:39:12.773Z,20.90
2018-07-13T21:41:43.293Z,20.90
2018-07-13T21:44:13.250Z,20.80
2018-07-13T21:46:41.877Z,20.70
2018-07-13T21:49:11.196Z,20.60
2018-07-13T21:51:41.346Z,20.60
2018-07-13T21:54:10.587Z,20.50
2018-07-13T21:59:09.057Z,20.50
2018-07-13T22:01:39.415Z,20.40
2018-07-13T22:04:10.319Z,20.40
2018-07-13T22:06:39.935Z,20.30
2018-07-13T22:09:10.139Z,20.30
2018-07-13T22:11:40.580Z,20.20
2018-07-13T22:14:10.452Z,20.20
2018-07-13T22:16:40.308Z,20.10
2018-07-13T22:19:10.126Z,20.10
2018-07-13T22:21:40.824Z,20.10
2018-07-13T22:24:11.174Z,20.00
2018-07-13T22:26:41.379Z,20.00
2018-07-13T22:29:11.826Z,20.00
2018-07-13T22:31:42.868Z,19.90
2018-07-13T22:34:13.056Z,19.90
2018-07-13T22:36:43.822Z,19.90
2018-07-13T22:39:12.602Z,19.80
2018-07-13T22:41:43.398Z,19.70
2018-07-13T22:44:13.556Z,19.70
2018-07-13T22:46:42.232Z,19.70
2018-07-13T22:49:12.144Z,19.70
2018-07-13T22:51:41.344Z,19.60
2018-07-13T22:54:10.859Z,19.60
2018-07-13T22:56:41.059Z,19.60
2018-07-13T22:59:10.082Z,19.50
2018-07-13T23:01:39.497Z,19.50
2018-07-13T23:04:08.198Z,19.40
2018-07-13T23:06:37.034Z,19.30
2018-07-13T23:09:06.341Z,19.30
2018-07-13T23:11:35.323Z,19.20
2018-07-13T23:14:03.862Z,19.10
2018-07-13T23:16:32.671Z,19.10
2018-07-13T23:19:01.184Z,19.00
2018-07-13T23:21:29.837Z,19.00
2018-07-13T23:23:58.919Z,18.90
2018-07-13T23:26:28.020Z,18.90
2018-07-13T23:28:56.572Z,18.80
2018-07-13T23:31:25.468Z,18.80
2018-07-13T23:33:54.405Z,18.80
2018-07-13T23:36:23.053Z,18.80
2018-07-13T23:38:51.658Z,18.80
2018-07-13T23:41:20.288Z,18.80
2018-07-13T23:43:48.989Z,18.70
2018-07-13T23:46:17.850Z,18.70
2018-07-13T23:48:46.639Z,18.60
2018-07-13T23:51:15.977Z,18.60
2018-07-13T23:53:44.743Z,18.50
2018-07-13T23:56:13.439Z,18.50
2018-07-13T23:58:42.236Z,18.40
